createdAt,value
2019-02-06T00:01:46.992Z,4.82
2019-02-06T00:04:15.502Z,4.51
2019-02-06T00:06:42.722Z,4.41
2019-02-06T00:09:13.213Z,4.42
2019-02-06T00:11:40.671Z,4.34
2019-02-06T00:14:08.052Z,4.13
2019-02-06T00:16:35.429Z,4.22
2019-02-06T00:19:02.463Z,4.23
2019-02-06T00:21:29.887Z,4.08
2019-02-06T00:23:57.484Z,4.10
2019-02-06T00:26:24.549Z,3.97
2019-02-06T00:28:52.051Z,4.04
2019-02-06T00:31:20.454Z,3.87
2019-02-06T00:33:48.089Z,3.93
2019-02-06T00:36:16.060Z,3.66
2019-02-06T00:38:43.421Z,3.51
2019-02-06T00:41:12.936Z,3.51
2019-02-06T00:43:40.275Z,3.43
2019-02-06T00:46:07.629Z,3.27
2019-02-06T00:48:34.981Z,3.54
2019-02-06T00:51:03.076Z,3.39
2019-02-06T00:53:30.719Z,3.52
2019-02-06T00:55:58.068Z,3.38
2019-02-06T00:58:26.138Z,3.44
2019-02-06T01:00:53.495Z,3.42
2019-02-06T01:03:21.060Z,3.64
2019-02-06T01:05:48.119Z,3.66
2019-02-06T01:08:15.457Z,3.66
2019-02-06T01:10:43.227Z,3.45
2019-02-06T01:13:10.570Z,3.28
2019-02-06T01:15:37.930Z,3.27
2019-02-06T01:18:05.592Z,3.26
2019-02-06T01:20:33.046Z,3.17
2019-02-06T01:23:00.089Z,3.24
2019-02-06T01:25:27.447Z,3.10
2019-02-06T01:27:54.801Z,3.33
2019-02-06T01:30:24.515Z,3.19
2019-02-06T01:32:51.585Z,3.30
2019-02-06T01:35:18.914Z,3.05
2019-02-06T01:37:46.378Z,3.10
2019-02-06T01:40:15.283Z,3.10
2019-02-06T01:42:42.768Z,2.96
2019-02-06T01:45:11.422Z,3.09
2019-02-06T01:47:38.481Z,3.12
2019-02-06T01:50:08.869Z,3.02
2019-02-06T01:52:36.536Z,2.76
2019-02-06T01:55:04.633Z,3.03
2019-02-06T01:57:31.685Z,2.88
2019-02-06T01:59:58.970Z,3.02
2019-02-06T02:02:26.093Z,2.79
2019-02-06T02:04:53.777Z,2.88
2019-02-06T02:07:20.840Z,3.08
2019-02-06T02:09:49.014Z,2.99
2019-02-06T02:12:16.071Z,2.78
2019-02-06T02:14:45.322Z,3.11
2019-02-06T02:17:12.592Z,2.83
2019-02-06T02:19:39.734Z,2.83
2019-02-06T02:22:06.789Z,2.95
2019-02-06T02:24:33.880Z,2.84
2019-02-06T02:27:01.107Z,2.89
2019-02-06T02:29:28.160Z,2.93
2019-02-06T02:31:55.376Z,2.87
2019-02-06T02:34:23.309Z,2.95
2019-02-06T02:36:50.462Z,3.22
2019-02-06T02:39:19.828Z,3.19
2019-02-06T02:41:46.878Z,2.93
2019-02-06T02:44:14.304Z,3.06
2019-02-06T02:46:41.345Z,2.98
2019-02-06T02:49:08.657Z,3.16
2019-02-06T02:51:35.700Z,3.14
2019-02-06T02:54:03.949Z,3.18
2019-02-06T02:56:30.988Z,3.08
2019-02-06T02:58:58.226Z,3.02
2019-02-06T03:01:34.161Z,3.29
2019-02-06T03:04:21.662Z,3.23
2019-02-06T03:06:48.827Z,3.09
2019-02-06T03:09:15.905Z,3.10
2019-02-06T03:11:43.024Z,3.32
2019-02-06T03:14:10.450Z,3.33
2019-02-06T03:16:37.481Z,3.27
2019-02-06T03:19:04.709Z,3.35
2019-02-06T03:21:31.749Z,3.30
2019-02-06T03:23:59.086Z,3.35
2019-02-06T03:26:26.208Z,3.32
2019-02-06T03:28:53.233Z,3.12
2019-02-06T03:31:20.627Z,3.14
2019-02-06T03:33:48.862Z,3.29
2019-02-06T03:36:15.887Z,3.34
2019-02-06T03:38:44.776Z,3.39
2019-02-06T03:41:11.804Z,2.99
2019-02-06T03:43:38.890Z,3.25
2019-02-06T03:46:06.297Z,3.19
2019-02-06T03:48:33.331Z,3.08
2019-02-06T03:51:00.652Z,3.38
2019-02-06T03:53:27.693Z,3.22
2019-02-06T03:55:54.709Z,3.65
2019-02-06T03:58:21.761Z,3.41
2019-02-06T04:00:48.784Z,3.44
2019-02-06T04:03:15.817Z,3.59
2019-02-06T04:05:43.582Z,3.75
2019-02-06T04:08:11.622Z,3.54
2019-02-06T04:10:39.523Z,3.46
2019-02-06T04:13:06.875Z,3.70
2019-02-06T04:15:35.146Z,3.50
2019-02-06T04:18:02.507Z,3.68
2019-02-06T04:20:29.546Z,3.47
2019-02-06T04:22:57.213Z,3.58
2019-02-06T04:25:24.565Z,3.85
2019-02-06T04:27:51.996Z,3.55
2019-02-06T04:30:19.705Z,3.70
2019-02-06T04:32:47.040Z,3.68
2019-02-06T04:35:14.605Z,3.84
2019-02-06T04:37:41.648Z,3.84
2019-02-06T04:40:14.817Z,3.70
2019-02-06T04:42:41.877Z,3.70
2019-02-06T04:45:10.263Z,3.48
2019-02-06T04:47:37.467Z,3.75
2019-02-06T04:50:06.554Z,3.44
2019-02-06T04:52:34.269Z,3.56
2019-02-06T04:55:01.475Z,3.66
2019-02-06T04:57:28.690Z,3.53
2019-02-06T04:59:56.851Z,3.50
2019-02-06T05:02:24.550Z,3.32
2019-02-06T05:04:51.588Z,3.77
2019-02-06T05:07:19.750Z,3.71
2019-02-06T05:09:47.029Z,3.47
2019-02-06T05:12:14.237Z,3.46
2019-02-06T05:14:41.315Z,3.90
2019-02-06T05:17:08.393Z,3.63
2019-02-06T05:19:35.782Z,3.35
2019-02-06T05:22:03.551Z,3.62
2019-02-06T05:24:31.319Z,3.22
2019-02-06T05:26:58.725Z,3.69
2019-02-06T05:29:26.332Z,3.69
2019-02-06T05:31:53.652Z,3.50
2019-02-06T05:34:21.346Z,3.81
2019-02-06T05:36:50.968Z,3.58
2019-02-06T05:39:17.676Z,3.91
2019-02-06T05:41:45.053Z,3.84
2019-02-06T05:44:12.403Z,3.60
2019-02-06T05:46:40.784Z,3.67
2019-02-06T05:49:08.175Z,3.91
2019-02-06T05:51:36.624Z,3.60
2019-02-06T05:54:04.587Z,3.75
2019-02-06T05:56:32.103Z,3.73
2019-02-06T05:58:59.499Z,3.77
2019-02-06T06:01:27.569Z,3.84
2019-02-06T06:03:54.924Z,3.59
2019-02-06T06:06:22.285Z,3.93
2019-02-06T06:08:49.939Z,3.83
2019-02-06T06:11:17.306Z,3.60
2019-02-06T06:13:44.671Z,3.66
2019-02-06T06:16:13.235Z,3.75
2019-02-06T06:18:40.896Z,3.76
2019-02-06T06:21:09.820Z,4.08
2019-02-06T06:23:37.164Z,3.79
2019-02-06T06:26:04.609Z,3.80
2019-02-06T06:28:31.640Z,3.79
2019-02-06T06:30:59.140Z,3.65
2019-02-06T06:33:26.196Z,3.64
2019-02-06T06:35:53.777Z,3.69
2019-02-06T06:38:20.850Z,3.87
2019-02-06T06:40:48.825Z,3.96
2019-02-06T06:43:16.542Z,3.85
2019-02-06T06:45:44.356Z,3.97
2019-02-06T06:48:12.320Z,3.89
2019-02-06T06:50:39.675Z,3.85
2019-02-06T06:53:07.025Z,3.88
2019-02-06T06:55:35.391Z,3.90
2019-02-06T06:58:02.454Z,3.73
2019-02-06T07:00:30.941Z,4.04
2019-02-06T07:03:00.019Z,4.11
2019-02-06T07:05:27.284Z,3.89
2019-02-06T07:07:54.785Z,3.93
2019-02-06T07:10:22.259Z,4.09
2019-02-06T07:12:49.312Z,3.83
2019-02-06T07:15:21.420Z,4.00
2019-02-06T07:17:48.583Z,3.88
2019-02-06T07:20:17.277Z,3.98
2019-02-06T07:22:44.662Z,4.25
2019-02-06T07:25:13.670Z,4.13
2019-02-06T07:27:41.055Z,4.31
2019-02-06T07:30:13.307Z,4.29
2019-02-06T07:32:40.376Z,4.16
2019-02-06T07:35:07.448Z,4.46
2019-02-06T07:37:36.002Z,4.55
2019-02-06T07:40:04.262Z,4.61
2019-02-06T07:42:31.652Z,4.58
2019-02-06T07:45:00.174Z,4.46
2019-02-06T07:47:28.169Z,4.37
2019-02-06T07:49:55.166Z,4.74
2019-02-06T07:52:22.185Z,4.49
2019-02-06T07:54:49.185Z,4.86
2019-02-06T07:57:17.369Z,5.15
2019-02-06T07:59:44.373Z,5.01
2019-02-06T08:02:11.581Z,5.11
2019-02-06T08:04:41.454Z,5.07
2019-02-06T08:07:07.528Z,4.75
2019-02-06T08:09:34.525Z,4.86
2019-02-06T08:12:01.645Z,4.79
2019-02-06T08:14:32.997Z,4.66
2019-02-06T08:17:00.002Z,4.51
2019-02-06T08:19:27.197Z,4.89
2019-02-06T08:21:54.299Z,4.77
2019-02-06T08:24:21.661Z,4.82
2019-02-06T08:26:48.654Z,4.88
2019-02-06T08:29:15.803Z,4.70
2019-02-06T08:31:44.227Z,4.96
2019-02-06T08:34:12.350Z,5.01
2019-02-06T08:36:40.463Z,4.97
2019-02-06T08:39:07.933Z,5.07
2019-02-06T08:41:35.120Z,4.75
2019-02-06T08:44:02.401Z,5.19
2019-02-06T08:46:29.871Z,4.80
2019-02-06T08:48:57.678Z,4.95
2019-02-06T08:51:25.335Z,4.98
2019-02-06T08:53:53.126Z,5.19
2019-02-06T08:56:22.245Z,4.91
2019-02-06T08:58:50.068Z,5.30
2019-02-06T09:01:17.121Z,5.10
2019-02-06T09:03:44.180Z,5.19
2019-02-06T09:06:11.524Z,5.00
2019-02-06T09:08:39.588Z,5.09
2019-02-06T09:11:06.895Z,5.19
2019-02-06T09:13:34.750Z,5.10
2019-02-06T09:16:04.002Z,5.25
2019-02-06T09:18:32.152Z,5.25
2019-02-06T09:20:59.842Z,5.33
2019-02-06T09:23:26.904Z,5.20
2019-02-06T09:25:56.976Z,5.39
2019-02-06T09:28:23.217Z,5.19
2019-02-06T09:30:50.403Z,5.44
2019-02-06T09:33:17.857Z,5.46
2019-02-06T09:35:44.961Z,5.41
2019-02-06T09:38:12.018Z,5.65
2019-02-06T09:40:39.442Z,5.83
2019-02-06T09:43:07.364Z,5.74
2019-02-06T09:45:34.438Z,5.63
2019-02-06T09:48:01.895Z,5.47
2019-02-06T09:50:31.614Z,5.61
2019-02-06T09:52:58.986Z,5.51
2019-02-06T09:55:26.507Z,5.62
2019-02-06T09:57:53.566Z,5.43
2019-02-06T10:00:23.550Z,5.42
2019-02-06T10:02:51.210Z,5.45
2019-02-06T10:05:19.884Z,5.69
2019-02-06T10:07:47.256Z,5.84
2019-02-06T10:10:16.681Z,5.69
2019-02-06T10:12:45.238Z,5.91
2019-02-06T10:15:21.811Z,5.92
2019-02-06T10:17:49.510Z,5.86
2019-02-06T10:20:17.740Z,5.99
2019-02-06T10:22:45.510Z,6.11
2019-02-06T10:25:14.203Z,6.03
2019-02-06T10:27:43.393Z,6.03
2019-02-06T10:30:18.905Z,6.33
2019-02-06T10:32:45.953Z,6.00
2019-02-06T10:35:13.350Z,6.18
2019-02-06T10:37:40.696Z,6.14
2019-02-06T10:40:08.257Z,6.29
2019-02-06T10:42:35.715Z,6.25
2019-02-06T10:45:03.992Z,6.21
2019-02-06T10:47:31.348Z,6.32
2019-02-06T10:49:58.807Z,5.85
2019-02-06T10:52:26.961Z,6.09
2019-02-06T10:54:56.074Z,6.34
2019-02-06T10:57:23.136Z,6.37
2019-02-06T10:59:50.471Z,6.30
2019-02-06T11:02:17.827Z,6.15
2019-02-06T11:04:45.032Z,5.95
2019-02-06T11:07:12.088Z,5.98
2019-02-06T11:09:46.119Z,5.98
2019-02-06T11:12:11.125Z,5.81
2019-02-06T11:14:38.641Z,5.92
2019-02-06T11:17:05.734Z,5.85
2019-02-06T11:19:32.797Z,6.05
2019-02-06T11:21:59.975Z,6.06
2019-02-06T11:24:28.226Z,6.01
2019-02-06T11:26:56.483Z,5.85
2019-02-06T11:29:25.270Z,5.89
2019-02-06T11:31:53.761Z,5.89
2019-02-06T11:34:21.139Z,5.43
2019-02-06T11:36:48.226Z,5.49
2019-02-06T11:39:23.095Z,5.59
2019-02-06T11:41:50.783Z,5.74
2019-02-06T11:44:18.936Z,5.89
2019-02-06T11:46:46.288Z,5.54
2019-02-06T11:49:14.459Z,5.89
2019-02-06T11:51:41.812Z,5.57
2019-02-06T11:54:09.474Z,5.66
2019-02-06T11:56:36.562Z,5.62
2019-02-06T11:59:03.699Z,5.88
2019-02-06T12:01:35.208Z,5.89
2019-02-06T12:04:02.263Z,5.43
2019-02-06T12:06:29.371Z,5.57
2019-02-06T12:08:57.723Z,5.86
2019-02-06T12:11:24.797Z,5.48
2019-02-06T12:13:53.046Z,5.41
2019-02-06T12:16:20.242Z,5.57
2019-02-06T12:18:49.790Z,5.60
2019-02-06T12:21:18.137Z,5.60
2019-02-06T12:23:45.298Z,5.62
2019-02-06T12:26:12.686Z,5.49
2019-02-06T12:28:41.959Z,5.71
2019-02-06T12:31:09.518Z,5.82
2019-02-06T12:33:38.716Z,5.66
2019-02-06T12:36:06.377Z,5.78
2019-02-06T12:38:33.739Z,5.55
2019-02-06T12:41:01.088Z,5.82
2019-02-06T12:43:29.353Z,5.62
2019-02-06T12:45:57.133Z,5.81
2019-02-06T12:48:24.794Z,5.59
2019-02-06T12:50:51.856Z,5.79
2019-02-06T12:53:20.019Z,5.70
2019-02-06T12:55:47.104Z,6.00
2019-02-06T12:58:15.309Z,5.77
2019-02-06T13:00:42.524Z,5.67
2019-02-06T13:03:09.943Z,5.87
2019-02-06T13:05:37.295Z,5.73
2019-02-06T13:08:06.493Z,5.69
2019-02-06T13:10:34.625Z,5.52
2019-02-06T13:13:03.555Z,5.80
2019-02-06T13:15:31.384Z,5.75
2019-02-06T13:17:58.513Z,5.50
2019-02-06T13:20:27.354Z,5.48
2019-02-06T13:22:55.539Z,5.51
2019-02-06T13:25:23.718Z,5.67
2019-02-06T13:27:50.765Z,5.68
2019-02-06T13:30:20.884Z,5.45
2019-02-06T13:32:48.359Z,5.73
2019-02-06T13:35:17.785Z,5.69
2019-02-06T13:37:44.835Z,5.30
2019-02-06T13:40:14.376Z,5.50
2019-02-06T13:42:41.718Z,5.48
2019-02-06T13:45:11.739Z,5.77
2019-02-06T13:47:38.811Z,5.69
2019-02-06T13:50:08.082Z,5.67
2019-02-06T13:52:35.574Z,5.65
2019-02-06T13:55:02.667Z,5.57
2019-02-06T13:57:33.861Z,5.78
2019-02-06T13:59:59.472Z,5.73
2019-02-06T14:02:26.535Z,5.65
2019-02-06T14:04:53.866Z,5.67
2019-02-06T14:07:21.736Z,5.73
2019-02-06T14:09:49.222Z,5.90
2019-02-06T14:12:17.395Z,6.02
2019-02-06T14:14:45.134Z,5.89
2019-02-06T14:17:12.901Z,6.02
2019-02-06T14:19:39.943Z,6.02
2019-02-06T14:22:09.848Z,5.81
2019-02-06T14:25:02.632Z,6.05
2019-02-06T14:28:04.650Z,5.90
2019-02-06T14:30:58.934Z,6.05
2019-02-06T14:33:38.450Z,6.14
2019-02-06T14:36:47.246Z,6.04
2019-02-06T14:39:25.003Z,5.87
2019-02-06T14:42:18.097Z,5.78
2019-02-06T14:45:11.121Z,5.81
2019-02-06T14:48:17.872Z,5.79
2019-02-06T14:51:36.071Z,5.59
2019-02-06T14:54:31.116Z,5.88
2019-02-06T14:57:36.025Z,5.99
2019-02-06T15:00:27.523Z,6.02
2019-02-06T15:03:43.415Z,5.80
2019-02-06T15:06:39.182Z,5.88
2019-02-06T15:09:45.741Z,5.91
2019-02-06T15:12:57.450Z,5.87
2019-02-06T15:15:50.335Z,5.94
2019-02-06T15:18:37.827Z,5.97
2019-02-06T15:21:36.489Z,6.02
2019-02-06T15:25:01.841Z,5.85
2019-02-06T15:28:42.909Z,5.97
2019-02-06T15:31:53.357Z,5.75
2019-02-06T15:35:10.266Z,5.97
2019-02-06T15:38:15.595Z,5.97
2019-02-06T15:40:54.293Z,6.21
2019-02-06T15:44:00.286Z,5.98
2019-02-06T15:46:42.170Z,6.14
2019-02-06T15:49:30.661Z,6.08
2019-02-06T15:52:38.602Z,6.03
2019-02-06T15:55:50.883Z,6.09
2019-02-06T15:58:47.186Z,6.24
2019-02-06T16:01:39.058Z,6.10
2019-02-06T16:05:40.703Z,6.14
2019-02-06T16:09:01.573Z,6.09
2019-02-06T16:11:51.019Z,6.07
2019-02-06T16:14:53.619Z,6.02
2019-02-06T16:17:49.951Z,6.09
2019-02-06T16:20:53.877Z,6.04
2019-02-06T16:23:56.842Z,6.19
2019-02-06T16:27:02.407Z,6.11
2019-02-06T16:30:03.007Z,6.21
2019-02-06T16:32:59.159Z,6.05
2019-02-06T16:35:54.147Z,6.15
2019-02-06T16:38:39.801Z,6.11
2019-02-06T16:41:56.681Z,6.06
2019-02-06T16:44:58.207Z,6.02
2019-02-06T16:48:00.096Z,5.92
2019-02-06T16:50:52.427Z,5.92
2019-02-06T16:54:08.469Z,5.82
2019-02-06T16:57:27.083Z,5.99
2019-02-06T17:00:31.301Z,5.93
2019-02-06T17:03:40.854Z,6.05
2019-02-06T17:06:39.625Z,6.15
2019-02-06T17:09:55.231Z,5.99
2019-02-06T17:12:54.319Z,6.16
2019-02-06T17:16:07.747Z,6.21
2019-02-06T17:19:13.196Z,6.21
2019-02-06T17:21:57.230Z,6.18
2019-02-06T17:24:48.123Z,6.02
2019-02-06T17:27:40.756Z,6.10
2019-02-06T17:30:53.146Z,6.03
2019-02-06T17:33:51.989Z,6.30
2019-02-06T17:36:50.487Z,6.39
2019-02-06T17:39:57.194Z,6.47
2019-02-06T17:43:09.873Z,6.37
2019-02-06T17:46:15.428Z,6.39
2019-02-06T17:49:22.006Z,6.52
2019-02-06T17:52:17.137Z,6.24
2019-02-06T17:55:20.512Z,6.42
2019-02-06T17:57:49.504Z,6.38
2019-02-06T18:00:28.248Z,6.53
2019-02-06T18:02:55.368Z,6.46
2019-02-06T18:05:22.443Z,6.49
2019-02-06T18:07:49.487Z,6.53
2019-02-06T18:10:17.030Z,6.32
2019-02-06T18:12:44.064Z,6.28
2019-02-06T18:15:11.101Z,6.18
2019-02-06T18:17:38.307Z,6.21
2019-02-06T18:20:07.627Z,6.46
2019-02-06T18:22:34.658Z,6.27
2019-02-06T18:25:02.270Z,6.26
2019-02-06T18:27:30.451Z,6.13
2019-02-06T18:29:58.184Z,6.25
2019-02-06T18:32:25.271Z,6.36
2019-02-06T18:34:52.748Z,6.46
2019-02-06T18:37:20.927Z,6.24
2019-02-06T18:39:48.137Z,6.40
2019-02-06T18:42:17.341Z,6.23
2019-02-06T18:44:46.137Z,6.37
2019-02-06T18:47:13.232Z,6.45
2019-02-06T18:49:40.322Z,6.39
2019-02-06T18:52:07.707Z,6.32
2019-02-06T18:54:35.916Z,6.55
2019-02-06T18:57:02.964Z,6.38
2019-02-06T18:59:30.096Z,6.36
2019-02-06T19:01:57.245Z,6.38
2019-02-06T19:04:24.490Z,6.52
2019-02-06T19:06:52.433Z,6.41
2019-02-06T19:09:20.105Z,6.38
2019-02-06T19:11:47.164Z,6.54
2019-02-06T19:14:15.207Z,6.27
2019-02-06T19:16:42.293Z,6.29
2019-02-06T19:19:09.354Z,6.48
2019-02-06T19:21:36.414Z,6.48
2019-02-06T19:24:04.411Z,6.49
2019-02-06T19:26:32.168Z,6.19
2019-02-06T19:28:59.594Z,6.47
2019-02-06T19:31:28.479Z,6.39
2019-02-06T19:33:55.539Z,6.41
2019-02-06T19:36:23.320Z,6.27
2019-02-06T19:38:50.763Z,6.51
2019-02-06T19:41:17.820Z,6.28
2019-02-06T19:43:44.897Z,6.54
2019-02-06T19:46:12.299Z,6.35
2019-02-06T19:48:39.345Z,6.49
2019-02-06T19:51:06.749Z,6.40
2019-02-06T19:53:33.967Z,6.48
2019-02-06T19:56:01.035Z,6.62
2019-02-06T19:58:28.508Z,6.44
2019-02-06T20:00:55.742Z,6.39
2019-02-06T20:03:22.762Z,6.35
2019-02-06T20:05:49.801Z,6.52
2019-02-06T20:08:16.961Z,6.73
2019-02-06T20:10:45.543Z,6.46
2019-02-06T20:13:14.619Z,6.45
2019-02-06T20:15:41.885Z,6.44
2019-02-06T20:18:09.365Z,6.48
2019-02-06T20:20:36.431Z,6.39
2019-02-06T20:23:19.451Z,6.47
2019-02-06T20:25:46.609Z,6.54
2019-02-06T20:28:13.646Z,6.45
2019-02-06T20:30:40.869Z,6.36
2019-02-06T20:33:09.206Z,6.43
2019-02-06T20:35:37.118Z,6.47
2019-02-06T20:38:04.317Z,6.43
2019-02-06T20:40:33.074Z,6.40
2019-02-06T20:43:01.127Z,6.29
2019-02-06T20:45:29.240Z,6.35
2019-02-06T20:47:57.828Z,6.58
2019-02-06T20:50:29.258Z,6.62
2019-02-06T20:52:57.072Z,6.62
2019-02-06T20:55:24.542Z,6.72
2019-02-06T20:57:51.717Z,6.91
2019-02-06T21:00:24.153Z,6.69
2019-02-06T21:02:51.281Z,6.54
2019-02-06T21:05:18.820Z,6.37
2019-02-06T21:07:46.426Z,6.43
2019-02-06T21:10:16.106Z,6.73
2019-02-06T21:12:43.221Z,6.49
2019-02-06T21:15:10.541Z,6.61
2019-02-06T21:17:37.608Z,6.61
2019-02-06T21:20:07.164Z,6.59
2019-02-06T21:22:34.594Z,6.60
2019-02-06T21:25:04.372Z,6.37
2019-02-06T21:27:33.148Z,6.45
2019-02-06T21:30:00.395Z,6.43
2019-02-06T21:32:27.715Z,6.32
2019-02-06T21:34:55.343Z,6.56
2019-02-06T21:37:23.638Z,6.62
2019-02-06T21:39:50.716Z,6.69
2019-02-06T21:42:18.206Z,6.42
2019-02-06T21:44:45.497Z,6.61
2019-02-06T21:47:13.067Z,6.70
2019-02-06T21:49:40.532Z,6.61
2019-02-06T21:52:09.615Z,6.55
2019-02-06T21:54:37.559Z,6.66
2019-02-06T21:57:05.439Z,6.57
2019-02-06T21:59:32.698Z,6.36
2019-02-06T22:02:01.485Z,6.53
2019-02-06T22:04:28.770Z,6.70
2019-02-06T22:06:56.199Z,6.70
2019-02-06T22:09:23.572Z,6.84
2019-02-06T22:11:50.988Z,6.65
2019-02-06T22:14:18.457Z,6.66
2019-02-06T22:16:45.588Z,6.73
2019-02-06T22:19:13.389Z,6.60
2019-02-06T22:21:40.593Z,6.75
2019-02-06T22:24:07.689Z,6.67
2019-02-06T22:26:34.791Z,6.64
2019-02-06T22:29:01.881Z,6.42
2019-02-06T22:31:29.356Z,6.48
2019-02-06T22:33:57.309Z,6.59
2019-02-06T22:36:26.695Z,6.81
2019-02-06T22:38:54.154Z,6.86
2019-02-06T22:41:21.559Z,6.68
2019-02-06T22:43:49.078Z,6.55
2019-02-06T22:46:16.261Z,6.71
2019-02-06T22:48:43.356Z,6.93
2019-02-06T22:51:10.430Z,6.67
2019-02-06T22:53:38.066Z,6.56
2019-02-06T22:56:05.401Z,6.90
2019-02-06T22:58:32.517Z,6.78
2019-02-06T23:01:21.928Z,6.57
2019-02-06T23:03:49.632Z,6.41
2019-02-06T23:06:16.760Z,6.69
2019-02-06T23:08:44.142Z,6.65
2019-02-06T23:11:11.221Z,6.89
2019-02-06T23:13:40.194Z,6.56
2019-02-06T23:16:07.716Z,6.58
2019-02-06T23:18:35.803Z,6.59
2019-02-06T23:21:02.845Z,6.74
2019-02-06T23:23:31.021Z,6.69
2019-02-06T23:25:58.357Z,6.74
2019-02-06T23:28:25.406Z,6.83
2019-02-06T23:30:52.512Z,6.54
2019-02-06T23:33:19.542Z,6.55
2019-02-06T23:35:48.186Z,6.50
2019-02-06T23:38:15.628Z,6.72
2019-02-06T23:40:43.110Z,6.71
2019-02-06T23:43:10.276Z,6.76
2019-02-06T23:45:37.372Z,6.61
2019-02-06T23:48:05.484Z,6.67
2019-02-06T23:50:33.136Z,6.71
2019-02-06T23:53:01.614Z,6.77
2019-02-06T23:55:28.782Z,6.66
2019-02-06T23:57:56.423Z,6.72
